Terminal Aerodrome Forecast
Issued by NWS Springfield, MO

Home | Current Version | Previous Version | Text Only | Print | Product List | Glossary On
Versions: 1 2 3 4 5 6 7 8 9 10 11 12 13 14 15 16 17
000
FTUS43 KSGF 102300
TAFSGF
TAF
KSGF 102320Z 1100/1124 13008KT P6SM SCT100 SCT250
     FM110800 15008KT P6SM BKN090
     FM111500 18011KT P6SM SCT090 SCT250
     FM111800 21011KT P6SM SCT040=

USA.gov is the U.S. government's official web portal to all federal, state and local government web resources and services.